Impacts METAR Board INFO
IDs:

KMSP - Minneapolis-St Paul, MN, US

Updated at: 1749 UTC 21 Oct 2017
Potential Impact None Slight Moderate High
Time21/05Z 21/06Z 21/07Z 21/08Z 21/09Z 21/10Z 21/11Z 21/12Z 21/13Z 21/14Z 21/15Z 21/16Z 21/17Z
VIS10 10 10 10 10 10 10 2 10 10 4 10 10
CIG150 150 150 150 150 70 60 29 16 14 13 65 14
CoverBKNBKNBKNBKNBKNBKNOVCOVCOVCOVCOVCBKNOVC
FltCatVFRVFRVFRVFRVFRVFRVFRIFRMVFRMVFRMVFRVFRMVFR
WX---------RA----+TSRA BR-RA-RARA BR----
WDir180170160170160160160170140160160160170
WSpd13 15 12 12 14 9 11 13 12 15 12 14 15
WGst21 19 19 -- -- -- 19 23 -- -- -- -- 22
Raw hourly METARs
KMSP 210453Z 18013G21KT 10SM FEW100 SCT120 BKN150 19/12 A2974 RMK AO2 RAB0357E03 SLP068 P0000 T01940117
KMSP 210553Z 17015G19KT 10SM BKN150 19/12 A2973 RMK AO2 SLP065 60000 T01890122 10217 20189 402560117 50002
KMSP 210653Z 16012G19KT 10SM BKN150 18/12 A2973 RMK AO2 SLP064 T01780122
KMSP 210753Z 17012KT 10SM SCT070 BKN150 18/12 A2972 RMK AO2 SLP059 T01780117
KMSP 210853Z 16014KT 10SM -RA FEW050 FEW110 BKN150 17/12 A2970 RMK AO2 RAB47 SLP052 P0000 60000 T01720117 58013
KMSP 210953Z 16009KT 10SM BKN070 BKN150 17/12 A2969 RMK AO2 RAE0856 SLP051 P0000 T01720117
KMSP 211053Z 16011G19KT 10SM FEW033 BKN060 OVC075 17/12 A2969 RMK AO2 SLP050 T01720122
KMSP 211205Z 17013G23KT 2SM R30L/6000VP6000FT +TSRA BR FEW011 FEW017 OVC029CB 16/14 A2971 RMK AO2 LTG DSNT E-SW RAB1158 TSB03 LTGICCC OHD TS OHD MOV N P0005 T01610139
KMSP 211253Z 14012KT 10SM -RA OVC016 16/14 A2969 RMK AO2 LTG DSNT W AND NW RAB1158 TSB03E22 SLP051 P0025 T01560144
KMSP 211353Z 16015KT 10SM -RA OVC014 16/15 A2969 RMK AO2 LTG DSNT NW SLP050 P0001 T01610150
KMSP 211453Z 16012KT 4SM RA BR BKN013 OVC019 16/16 A2968 RMK AO2 LTG DSNT SW SLP049 P0007 60033 T01610156 56003
KMSP 211553Z 16014KT 10SM SCT013 SCT034 BKN065 16/16 A2968 RMK AO2 LTG DSNT SE RAE26 SLP050 P0009 T01610156
KMSP 211653Z 17015G22KT 10SM OVC014 17/16 A2968 RMK AO2 RAB1556E17 SLP049 P0000 T01720156